sensor_id;sensor_type;location;lat;lon;timestamp;P1;durP1;ratioP1;P2;durP2;ratioP2
55539;SDS011;41384;51.418;7.286;2023-07-29T00:01:16;4.95;;;2.38;;
55539;SDS011;41384;51.418;7.286;2023-07-29T00:03:41;1.77;;;1.38;;
55539;SDS011;41384;51.418;7.286;2023-07-29T00:06:06;2.03;;;1.50;;
55539;SDS011;41384;51.418;7.286;2023-07-29T00:08:32;1.40;;;1.30;;
55539;SDS011;41384;51.418;7.286;2023-07-29T00:10:57;1.70;;;1.58;;
55539;SDS011;41384;51.418;7.286;2023-07-29T00:13:22;2.08;;;1.65;;
55539;SDS011;41384;51.418;7.286;2023-07-29T00:15:47;1.65;;;1.40;;
55539;SDS011;41384;51.418;7.286;2023-07-29T00:18:13;2.00;;;1.80;;
55539;SDS011;41384;51.418;7.286;2023-07-29T00:20:38;2.42;;;1.90;;
55539;SDS011;41384;51.418;7.286;2023-07-29T00:23:03;3.42;;;2.13;;
55539;SDS011;41384;51.418;7.286;2023-07-29T00:25:29;4.13;;;2.22;;
55539;SDS011;41384;51.418;7.286;2023-07-29T00:27:55;2.47;;;2.17;;
55539;SDS011;41384;51.418;7.286;2023-07-29T00:30:21;2.55;;;2.22;;
55539;SDS011;41384;51.418;7.286;2023-07-29T00:32:46;2.95;;;2.33;;
55539;SDS011;41384;51.418;7.286;2023-07-29T00:35:12;3.15;;;2.25;;
55539;SDS011;41384;51.418;7.286;2023-07-29T00:37:37;2.75;;;2.38;;
55539;SDS011;41384;51.418;7.286;2023-07-29T00:40:03;3.58;;;2.53;;
55539;SDS011;41384;51.418;7.286;2023-07-29T00:42:34;2.75;;;2.03;;
55539;SDS011;41384;51.418;7.286;2023-07-29T00:44:59;3.20;;;2.53;;
55539;SDS011;41384;51.418;7.286;2023-07-29T00:47:25;5.30;;;2.38;;
55539;SDS011;41384;51.418;7.286;2023-07-29T00:49:50;3.92;;;2.33;;
55539;SDS011;41384;51.418;7.286;2023-07-29T00:52:16;2.92;;;2.20;;
55539;SDS011;41384;51.418;7.286;2023-07-29T00:54:41;4.38;;;2.08;;
55539;SDS011;41384;51.418;7.286;2023-07-29T00:57:08;3.65;;;2.63;;
55539;SDS011;41384;51.418;7.286;2023-07-29T00:59:35;3.28;;;2.10;;
55539;SDS011;41384;51.418;7.286;2023-07-29T01:02:01;2.80;;;1.90;;
55539;SDS011;41384;51.418;7.286;2023-07-29T01:04:27;2.40;;;1.90;;
55539;SDS011;41384;51.418;7.286;2023-07-29T01:07:03;2.22;;;1.58;;
55539;SDS011;41384;51.418;7.286;2023-07-29T01:14:47;2.22;;;1.90;;
55539;SDS011;41384;51.418;7.286;2023-07-29T01:20:36;3.47;;;1.33;;
55539;SDS011;41384;51.418;7.286;2023-07-29T01:23:03;2.60;;;1.58;;
55539;SDS011;41384;51.418;7.286;2023-07-29T01:25:29;2.08;;;1.45;;
55539;SDS011;41384;51.418;7.286;2023-07-29T01:27:54;5.15;;;1.50;;
55539;SDS011;41384;51.418;7.286;2023-07-29T01:30:20;1.55;;;1.33;;
55539;SDS011;41384;51.418;7.286;2023-07-29T01:38:33;1.95;;;1.52;;
55539;SDS011;41384;51.418;7.286;2023-07-29T01:41:00;2.47;;;1.40;;
55539;SDS011;41384;51.418;7.286;2023-07-29T01:43:27;1.42;;;1.10;;
55539;SDS011;41384;51.418;7.286;2023-07-29T01:45:53;2.92;;;1.40;;
55539;SDS011;41384;51.418;7.286;2023-07-29T01:48:19;1.98;;;1.30;;
55539;SDS011;41384;51.418;7.286;2023-07-29T01:50:44;2.08;;;1.17;;
55539;SDS011;41384;51.418;7.286;2023-07-29T01:53:10;2.60;;;1.30;;
55539;SDS011;41384;51.418;7.286;2023-07-29T01:55:35;1.67;;;0.93;;
55539;SDS011;41384;51.418;7.286;2023-07-29T01:58:00;2.65;;;1.25;;
55539;SDS011;41384;51.418;7.286;2023-07-29T02:00:25;1.73;;;1.10;;
55539;SDS011;41384;51.418;7.286;2023-07-29T02:02:51;1.30;;;1.10;;
55539;SDS011;41384;51.418;7.286;2023-07-29T02:05:16;1.92;;;1.40;;
55539;SDS011;41384;51.418;7.286;2023-07-29T02:07:41;1.25;;;1.10;;
55539;SDS011;41384;51.418;7.286;2023-07-29T02:10:07;2.67;;;1.00;;
55539;SDS011;41384;51.418;7.286;2023-07-29T02:12:33;2.30;;;1.30;;
55539;SDS011;41384;51.418;7.286;2023-07-29T02:14:58;2.60;;;1.40;;
55539;SDS011;41384;51.418;7.286;2023-07-29T02:17:23;1.70;;;1.38;;
55539;SDS011;41384;51.418;7.286;2023-07-29T02:19:48;2.42;;;1.20;;
55539;SDS011;41384;51.418;7.286;2023-07-29T02:22:14;1.52;;;1.27;;
55539;SDS011;41384;51.418;7.286;2023-07-29T02:24:40;1.73;;;1.10;;
55539;SDS011;41384;51.418;7.286;2023-07-29T02:27:06;1.73;;;1.20;;
55539;SDS011;41384;51.418;7.286;2023-07-29T02:29:31;2.88;;;1.52;;
55539;SDS011;41384;51.418;7.286;2023-07-29T02:31:58;4.00;;;1.75;;
55539;SDS011;41384;51.418;7.286;2023-07-29T02:34:23;1.30;;;1.20;;
55539;SDS011;41384;51.418;7.286;2023-07-29T02:36:48;2.58;;;1.40;;
55539;SDS011;41384;51.418;7.286;2023-07-29T02:39:14;2.20;;;1.33;;
55539;SDS011;41384;51.418;7.286;2023-07-29T02:41:39;1.95;;;1.20;;
55539;SDS011;41384;51.418;7.286;2023-07-29T02:44:05;3.30;;;1.40;;
55539;SDS011;41384;51.418;7.286;2023-07-29T02:46:30;2.67;;;1.50;;
55539;SDS011;41384;51.418;7.286;2023-07-29T02:48:55;2.63;;;1.52;;
55539;SDS011;41384;51.418;7.286;2023-07-29T02:51:21;2.80;;;1.60;;
55539;SDS011;41384;51.418;7.286;2023-07-29T02:53:46;4.35;;;1.98;;
55539;SDS011;41384;51.418;7.286;2023-07-29T02:56:12;2.65;;;1.60;;
55539;SDS011;41384;51.418;7.286;2023-07-29T02:58:37;2.50;;;2.00;;
55539;SDS011;41384;51.418;7.286;2023-07-29T03:01:03;3.13;;;1.80;;
55539;SDS011;41384;51.418;7.286;2023-07-29T03:03:29;2.72;;;1.75;;
55539;SDS011;41384;51.418;7.286;2023-07-29T03:08:41;1.80;;;1.67;;
55539;SDS011;41384;51.418;7.286;2023-07-29T03:11:07;3.05;;;1.92;;
55539;SDS011;41384;51.418;7.286;2023-07-29T03:13:33;4.55;;;1.85;;
55539;SDS011;41384;51.418;7.286;2023-07-29T03:16:11;2.60;;;1.65;;
55539;SDS011;41384;51.418;7.286;2023-07-29T03:18:39;1.95;;;1.60;;
55539;SDS011;41384;51.418;7.286;2023-07-29T03:21:04;2.33;;;2.05;;
55539;SDS011;41384;51.418;7.286;2023-07-29T03:23:30;3.33;;;2.00;;
55539;SDS011;41384;51.418;7.286;2023-07-29T03:25:57;2.20;;;1.73;;
55539;SDS011;41384;51.418;7.286;2023-07-29T03:28:31;2.28;;;1.90;;
55539;SDS011;41384;51.418;7.286;2023-07-29T03:30:58;3.08;;;1.75;;
55539;SDS011;41384;51.418;7.286;2023-07-29T03:33:24;1.85;;;1.58;;
55539;SDS011;41384;51.418;7.286;2023-07-29T03:35:50;3.53;;;1.90;;
55539;SDS011;41384;51.418;7.286;2023-07-29T03:38:15;2.20;;;2.00;;
55539;SDS011;41384;51.418;7.286;2023-07-29T03:40:41;3.17;;;1.73;;
55539;SDS011;41384;51.418;7.286;2023-07-29T03:43:07;4.65;;;1.90;;
55539;SDS011;41384;51.418;7.286;2023-07-29T03:45:33;4.75;;;2.20;;
55539;SDS011;41384;51.418;7.286;2023-07-29T03:47:59;3.78;;;1.92;;
55539;SDS011;41384;51.418;7.286;2023-07-29T03:50:24;2.63;;;1.80;;
55539;SDS011;41384;51.418;7.286;2023-07-29T03:52:51;1.98;;;1.77;;
55539;SDS011;41384;51.418;7.286;2023-07-29T03:55:16;2.10;;;1.90;;
55539;SDS011;41384;51.418;7.286;2023-07-29T03:57:41;1.83;;;1.60;;
55539;SDS011;41384;51.418;7.286;2023-07-29T04:00:07;2.13;;;1.85;;
55539;SDS011;41384;51.418;7.286;2023-07-29T04:02:33;1.73;;;1.52;;
55539;SDS011;41384;51.418;7.286;2023-07-29T04:05:02;2.67;;;1.80;;
55539;SDS011;41384;51.418;7.286;2023-07-29T04:07:28;2.15;;;1.65;;
55539;SDS011;41384;51.418;7.286;2023-07-29T04:09:53;2.30;;;2.00;;
55539;SDS011;41384;51.418;7.286;2023-07-29T04:12:19;3.58;;;2.42;;
55539;SDS011;41384;51.418;7.286;2023-07-29T04:14:46;4.10;;;2.42;;
55539;SDS011;41384;51.418;7.286;2023-07-29T04:17:11;3.13;;;2.83;;
55539;SDS011;41384;51.418;7.286;2023-07-29T04:19:37;2.92;;;2.47;;
55539;SDS011;41384;51.418;7.286;2023-07-29T04:22:02;4.35;;;3.22;;
55539;SDS011;41384;51.418;7.286;2023-07-29T04:24:27;4.18;;;3.25;;
55539;SDS011;41384;51.418;7.286;2023-07-29T04:26:53;4.28;;;3.47;;
55539;SDS011;41384;51.418;7.286;2023-07-29T04:29:18;8.45;;;3.50;;
55539;SDS011;41384;51.418;7.286;2023-07-29T04:31:43;4.50;;;3.30;;
55539;SDS011;41384;51.418;7.286;2023-07-29T04:34:09;4.72;;;3.60;;
55539;SDS011;41384;51.418;7.286;2023-07-29T04:36:34;5.35;;;3.28;;
55539;SDS011;41384;51.418;7.286;2023-07-29T04:38:59;7.28;;;3.30;;
55539;SDS011;41384;51.418;7.286;2023-07-29T04:41:25;5.57;;;3.25;;
55539;SDS011;41384;51.418;7.286;2023-07-29T04:43:50;7.28;;;3.90;;
55539;SDS011;41384;51.418;7.286;2023-07-29T04:46:15;6.88;;;3.95;;
55539;SDS011;41384;51.418;7.286;2023-07-29T04:48:41;4.75;;;4.22;;
55539;SDS011;41384;51.418;7.286;2023-07-29T04:51:06;7.63;;;4.20;;
55539;SDS011;41384;51.418;7.286;2023-07-29T04:53:31;5.38;;;4.30;;
55539;SDS011;41384;51.418;7.286;2023-07-29T04:55:57;5.03;;;4.20;;
55539;SDS011;41384;51.418;7.286;2023-07-29T04:58:23;8.57;;;4.65;;
55539;SDS011;41384;51.418;7.286;2023-07-29T05:00:48;5.20;;;4.28;;
55539;SDS011;41384;51.418;7.286;2023-07-29T05:03:13;6.18;;;5.18;;
55539;SDS011;41384;51.418;7.286;2023-07-29T05:05:39;5.90;;;4.40;;
55539;SDS011;41384;51.418;7.286;2023-07-29T05:08:04;6.35;;;4.30;;
55539;SDS011;41384;51.418;7.286;2023-07-29T05:10:29;6.97;;;4.05;;
55539;SDS011;41384;51.418;7.286;2023-07-29T05:12:54;5.18;;;3.70;;
55539;SDS011;41384;51.418;7.286;2023-07-29T05:15:20;5.18;;;3.70;;
55539;SDS011;41384;51.418;7.286;2023-07-29T05:17:45;5.80;;;3.83;;
55539;SDS011;41384;51.418;7.286;2023-07-29T05:20:10;8.05;;;5.03;;
55539;SDS011;41384;51.418;7.286;2023-07-29T05:22:36;7.95;;;5.32;;
55539;SDS011;41384;51.418;7.286;2023-07-29T05:25:02;11.43;;;6.47;;
55539;SDS011;41384;51.418;7.286;2023-07-29T05:27:27;10.65;;;5.45;;
55539;SDS011;41384;51.418;7.286;2023-07-29T05:29:53;12.90;;;7.28;;
55539;SDS011;41384;51.418;7.286;2023-07-29T05:32:18;11.73;;;6.85;;
55539;SDS011;41384;51.418;7.286;2023-07-29T05:34:43;10.55;;;6.78;;
55539;SDS011;41384;51.418;7.286;2023-07-29T05:37:08;10.65;;;6.57;;
55539;SDS011;41384;51.418;7.286;2023-07-29T05:39:34;9.70;;;5.90;;
55539;SDS011;41384;51.418;7.286;2023-07-29T05:41:59;10.23;;;5.80;;
55539;SDS011;41384;51.418;7.286;2023-07-29T05:44:27;10.68;;;5.57;;
55539;SDS011;41384;51.418;7.286;2023-07-29T05:46:52;9.18;;;5.80;;
55539;SDS011;41384;51.418;7.286;2023-07-29T05:49:18;10.15;;;5.55;;
55539;SDS011;41384;51.418;7.286;2023-07-29T05:51:43;9.35;;;5.90;;
55539;SDS011;41384;51.418;7.286;2023-07-29T05:54:08;9.77;;;5.68;;
55539;SDS011;41384;51.418;7.286;2023-07-29T05:56:33;9.40;;;6.03;;
55539;SDS011;41384;51.418;7.286;2023-07-29T05:58:59;8.75;;;5.78;;
55539;SDS011;41384;51.418;7.286;2023-07-29T06:01:25;9.43;;;5.40;;
55539;SDS011;41384;51.418;7.286;2023-07-29T06:03:51;11.52;;;5.10;;
55539;SDS011;41384;51.418;7.286;2023-07-29T06:06:16;8.20;;;5.15;;
55539;SDS011;41384;51.418;7.286;2023-07-29T06:08:41;7.82;;;4.50;;
55539;SDS011;41384;51.418;7.286;2023-07-29T06:11:07;5.78;;;4.20;;
55539;SDS011;41384;51.418;7.286;2023-07-29T06:13:32;5.90;;;3.90;;
55539;SDS011;41384;51.418;7.286;2023-07-29T06:15:58;5.60;;;4.03;;
55539;SDS011;41384;51.418;7.286;2023-07-29T06:18:23;5.93;;;4.05;;
55539;SDS011;41384;51.418;7.286;2023-07-29T06:20:49;4.97;;;3.83;;
55539;SDS011;41384;51.418;7.286;2023-07-29T06:23:14;6.25;;;3.40;;
55539;SDS011;41384;51.418;7.286;2023-07-29T06:25:40;8.23;;;4.25;;
55539;SDS011;41384;51.418;7.286;2023-07-29T06:28:05;7.78;;;4.30;;
55539;SDS011;41384;51.418;7.286;2023-07-29T06:30:30;7.00;;;4.18;;
55539;SDS011;41384;51.418;7.286;2023-07-29T06:32:56;7.03;;;3.85;;
55539;SDS011;41384;51.418;7.286;2023-07-29T06:35:21;5.63;;;3.63;;
55539;SDS011;41384;51.418;7.286;2023-07-29T06:37:46;5.40;;;3.25;;
55539;SDS011;41384;51.418;7.286;2023-07-29T06:40:12;5.68;;;3.65;;
55539;SDS011;41384;51.418;7.286;2023-07-29T06:42:37;5.88;;;3.10;;
55539;SDS011;41384;51.418;7.286;2023-07-29T06:45:03;4.65;;;3.13;;
55539;SDS011;41384;51.418;7.286;2023-07-29T06:47:29;4.22;;;2.80;;
55539;SDS011;41384;51.418;7.286;2023-07-29T06:49:55;7.18;;;2.85;;
55539;SDS011;41384;51.418;7.286;2023-07-29T06:52:20;5.32;;;2.25;;
55539;SDS011;41384;51.418;7.286;2023-07-29T06:54:45;4.60;;;2.38;;
55539;SDS011;41384;51.418;7.286;2023-07-29T06:57:10;3.40;;;1.85;;
55539;SDS011;41384;51.418;7.286;2023-07-29T06:59:36;2.85;;;2.03;;
55539;SDS011;41384;51.418;7.286;2023-07-29T07:02:01;4.05;;;1.58;;
55539;SDS011;41384;51.418;7.286;2023-07-29T07:04:27;2.67;;;1.73;;
55539;SDS011;41384;51.418;7.286;2023-07-29T07:06:52;2.78;;;1.30;;
55539;SDS011;41384;51.418;7.286;2023-07-29T07:09:17;1.73;;;1.27;;
55539;SDS011;41384;51.418;7.286;2023-07-29T07:11:42;3.38;;;1.40;;
55539;SDS011;41384;51.418;7.286;2023-07-29T07:14:08;2.03;;;1.50;;
55539;SDS011;41384;51.418;7.286;2023-07-29T07:16:33;2.55;;;1.38;;
55539;SDS011;41384;51.418;7.286;2023-07-29T07:19:00;1.80;;;1.30;;
55539;SDS011;41384;51.418;7.286;2023-07-29T07:21:25;3.45;;;1.30;;
55539;SDS011;41384;51.418;7.286;2023-07-29T07:23:51;1.92;;;1.15;;
55539;SDS011;41384;51.418;7.286;2023-07-29T07:26:16;1.55;;;0.93;;
55539;SDS011;41384;51.418;7.286;2023-07-29T07:28:41;3.30;;;1.20;;
55539;SDS011;41384;51.418;7.286;2023-07-29T07:31:06;2.03;;;1.20;;
55539;SDS011;41384;51.418;7.286;2023-07-29T07:33:32;3.13;;;1.30;;
55539;SDS011;41384;51.418;7.286;2023-07-29T07:35:57;2.47;;;1.30;;
55539;SDS011;41384;51.418;7.286;2023-07-29T07:38:22;3.20;;;1.10;;
55539;SDS011;41384;51.418;7.286;2023-07-29T07:40:54;1.30;;;1.00;;
55539;SDS011;41384;51.418;7.286;2023-07-29T07:43:21;3.50;;;1.15;;
55539;SDS011;41384;51.418;7.286;2023-07-29T07:45:47;2.65;;;1.10;;
55539;SDS011;41384;51.418;7.286;2023-07-29T07:48:12;2.33;;;1.10;;
55539;SDS011;41384;51.418;7.286;2023-07-29T07:50:38;2.08;;;1.15;;
55539;SDS011;41384;51.418;7.286;2023-07-29T07:53:03;2.33;;;1.10;;
55539;SDS011;41384;51.418;7.286;2023-07-29T07:55:29;2.47;;;1.30;;
55539;SDS011;41384;51.418;7.286;2023-07-29T07:57:54;2.53;;;1.13;;
55539;SDS011;41384;51.418;7.286;2023-07-29T08:00:20;2.00;;;1.00;;
55539;SDS011;41384;51.418;7.286;2023-07-29T08:02:45;2.85;;;0.98;;
55539;SDS011;41384;51.418;7.286;2023-07-29T08:05:11;2.47;;;0.98;;
55539;SDS011;41384;51.418;7.286;2023-07-29T08:07:36;1.42;;;0.80;;
55539;SDS011;41384;51.418;7.286;2023-07-29T08:10:01;2.72;;;1.27;;
55539;SDS011;41384;51.418;7.286;2023-07-29T08:12:26;1.60;;;0.85;;
55539;SDS011;41384;51.418;7.286;2023-07-29T08:14:52;1.50;;;0.80;;
55539;SDS011;41384;51.418;7.286;2023-07-29T08:17:17;1.88;;;0.80;;
55539;SDS011;41384;51.418;7.286;2023-07-29T08:19:42;2.67;;;0.90;;
55539;SDS011;41384;51.418;7.286;2023-07-29T08:22:07;0.80;;;0.73;;
55539;SDS011;41384;51.418;7.286;2023-07-29T08:24:33;3.63;;;1.10;;
55539;SDS011;41384;51.418;7.286;2023-07-29T08:26:59;0.98;;;0.70;;
55539;SDS011;41384;51.418;7.286;2023-07-29T08:29:24;1.60;;;0.90;;
55539;SDS011;41384;51.418;7.286;2023-07-29T08:31:49;1.60;;;0.77;;
55539;SDS011;41384;51.418;7.286;2023-07-29T08:34:16;0.80;;;0.70;;
55539;SDS011;41384;51.418;7.286;2023-07-29T08:36:41;1.02;;;0.70;;
55539;SDS011;41384;51.418;7.286;2023-07-29T08:39:07;1.00;;;0.80;;
55539;SDS011;41384;51.418;7.286;2023-07-29T08:41:53;4.28;;;0.80;;
55539;SDS011;41384;51.418;7.286;2023-07-29T08:44:26;1.10;;;0.80;;
55539;SDS011;41384;51.418;7.286;2023-07-29T08:49:24;1.33;;;0.65;;
55539;SDS011;41384;51.418;7.286;2023-07-29T08:51:52;1.95;;;0.90;;
55539;SDS011;41384;51.418;7.286;2023-07-29T08:54:18;1.60;;;0.80;;
55539;SDS011;41384;51.418;7.286;2023-07-29T08:56:44;1.13;;;0.80;;
55539;SDS011;41384;51.418;7.286;2023-07-29T08:59:10;1.45;;;0.80;;
55539;SDS011;41384;51.418;7.286;2023-07-29T09:01:37;1.35;;;0.90;;
55539;SDS011;41384;51.418;7.286;2023-07-29T09:04:03;1.05;;;0.68;;
55539;SDS011;41384;51.418;7.286;2023-07-29T09:06:29;3.60;;;1.27;;
55539;SDS011;41384;51.418;7.286;2023-07-29T09:08:56;1.88;;;0.82;;
55539;SDS011;41384;51.418;7.286;2023-07-29T09:11:23;1.80;;;1.00;;
55539;SDS011;41384;51.418;7.286;2023-07-29T09:13:48;0.85;;;0.65;;
55539;SDS011;41384;51.418;7.286;2023-07-29T09:16:13;1.90;;;0.98;;
55539;SDS011;41384;51.418;7.286;2023-07-29T09:18:39;0.77;;;0.60;;
55539;SDS011;41384;51.418;7.286;2023-07-29T09:21:05;1.55;;;0.75;;
55539;SDS011;41384;51.418;7.286;2023-07-29T09:23:40;3.33;;;0.88;;
55539;SDS011;41384;51.418;7.286;2023-07-29T09:26:07;1.15;;;0.60;;
55539;SDS011;41384;51.418;7.286;2023-07-29T09:28:34;0.70;;;0.60;;
55539;SDS011;41384;51.418;7.286;2023-07-29T09:31:00;1.95;;;0.65;;
55539;SDS011;41384;51.418;7.286;2023-07-29T09:33:26;1.63;;;0.70;;
55539;SDS011;41384;51.418;7.286;2023-07-29T09:35:52;2.63;;;0.63;;
55539;SDS011;41384;51.418;7.286;2023-07-29T09:38:18;0.80;;;0.55;;
55539;SDS011;41384;51.418;7.286;2023-07-29T09:40:50;3.80;;;0.93;;
55539;SDS011;41384;51.418;7.286;2023-07-29T09:43:20;1.52;;;0.70;;
55539;SDS011;41384;51.418;7.286;2023-07-29T09:45:51;1.60;;;0.65;;
55539;SDS011;41384;51.418;7.286;2023-07-29T09:48:17;2.85;;;0.50;;
55539;SDS011;41384;51.418;7.286;2023-07-29T09:50:47;0.77;;;0.75;;
55539;SDS011;41384;51.418;7.286;2023-07-29T09:53:13;1.45;;;0.60;;
55539;SDS011;41384;51.418;7.286;2023-07-29T09:55:39;3.53;;;0.60;;
55539;SDS011;41384;51.418;7.286;2023-07-29T09:58:05;0.70;;;0.60;;
55539;SDS011;41384;51.418;7.286;2023-07-29T10:00:33;3.00;;;0.80;;
55539;SDS011;41384;51.418;7.286;2023-07-29T10:02:59;2.05;;;0.88;;
55539;SDS011;41384;51.418;7.286;2023-07-29T10:05:28;1.05;;;0.75;;
55539;SDS011;41384;51.418;7.286;2023-07-29T10:07:55;1.63;;;0.73;;
55539;SDS011;41384;51.418;7.286;2023-07-29T10:10:21;1.52;;;0.70;;
55539;SDS011;41384;51.418;7.286;2023-07-29T10:12:46;1.70;;;0.80;;
55539;SDS011;41384;51.418;7.286;2023-07-29T10:15:12;0.73;;;0.70;;
55539;SDS011;41384;51.418;7.286;2023-07-29T10:17:38;17.70;;;2.10;;
55539;SDS011;41384;51.418;7.286;2023-07-29T10:20:05;1.48;;;0.70;;
55539;SDS011;41384;51.418;7.286;2023-07-29T10:22:33;6.13;;;0.77;;
55539;SDS011;41384;51.418;7.286;2023-07-29T10:25:07;1.60;;;0.50;;
55539;SDS011;41384;51.418;7.286;2023-07-29T10:27:52;2.15;;;0.85;;
55539;SDS011;41384;51.418;7.286;2023-07-29T10:30:21;1.27;;;0.55;;
55539;SDS011;41384;51.418;7.286;2023-07-29T10:32:47;0.82;;;0.50;;
55539;SDS011;41384;51.418;7.286;2023-07-29T10:35:14;0.85;;;0.68;;
55539;SDS011;41384;51.418;7.286;2023-07-29T10:37:40;0.95;;;0.70;;
55539;SDS011;41384;51.418;7.286;2023-07-29T10:40:07;1.35;;;0.60;;
55539;SDS011;41384;51.418;7.286;2023-07-29T10:42:34;3.42;;;0.60;;
55539;SDS011;41384;51.418;7.286;2023-07-29T10:45:00;0.55;;;0.52;;
55539;SDS011;41384;51.418;7.286;2023-07-29T10:47:42;2.42;;;0.57;;
55539;SDS011;41384;51.418;7.286;2023-07-29T10:50:14;0.80;;;0.50;;
55539;SDS011;41384;51.418;7.286;2023-07-29T10:52:43;1.77;;;0.70;;
55539;SDS011;41384;51.418;7.286;2023-07-29T10:55:23;3.08;;;0.93;;
55539;SDS011;41384;51.418;7.286;2023-07-29T10:57:49;1.08;;;0.60;;
55539;SDS011;41384;51.418;7.286;2023-07-29T11:00:15;0.90;;;0.60;;
55539;SDS011;41384;51.418;7.286;2023-07-29T11:02:40;0.90;;;0.60;;
55539;SDS011;41384;51.418;7.286;2023-07-29T11:05:27;1.65;;;0.60;;
55539;SDS011;41384;51.418;7.286;2023-07-29T11:07:51;2.97;;;0.73;;
55539;SDS011;41384;51.418;7.286;2023-07-29T11:10:17;1.75;;;0.73;;
55539;SDS011;41384;51.418;7.286;2023-07-29T11:12:49;11.02;;;1.30;;
55539;SDS011;41384;51.418;7.286;2023-07-29T11:17:48;2.42;;;0.80;;
55539;SDS011;41384;51.418;7.286;2023-07-29T11:20:18;1.77;;;0.70;;
55539;SDS011;41384;51.418;7.286;2023-07-29T11:22:45;1.50;;;0.70;;
55539;SDS011;41384;51.418;7.286;2023-07-29T11:25:11;0.80;;;0.70;;
55539;SDS011;41384;51.418;7.286;2023-07-29T11:27:38;1.52;;;0.70;;
55539;SDS011;41384;51.418;7.286;2023-07-29T11:30:05;1.30;;;0.50;;
55539;SDS011;41384;51.418;7.286;2023-07-29T11:32:32;2.45;;;0.98;;
55539;SDS011;41384;51.418;7.286;2023-07-29T11:35:01;0.98;;;0.70;;
55539;SDS011;41384;51.418;7.286;2023-07-29T11:39:55;3.75;;;0.70;;
55539;SDS011;41384;51.418;7.286;2023-07-29T11:42:21;2.13;;;0.60;;
55539;SDS011;41384;51.418;7.286;2023-07-29T11:44:46;4.18;;;0.80;;
55539;SDS011;41384;51.418;7.286;2023-07-29T11:47:12;11.20;;;0.95;;
55539;SDS011;41384;51.418;7.286;2023-07-29T11:49:38;2.10;;;0.60;;
55539;SDS011;41384;51.418;7.286;2023-07-29T11:52:08;1.45;;;0.80;;
55539;SDS011;41384;51.418;7.286;2023-07-29T11:54:36;2.63;;;0.90;;
55539;SDS011;41384;51.418;7.286;2023-07-29T11:57:09;2.40;;;0.90;;
55539;SDS011;41384;51.418;7.286;2023-07-29T11:59:34;1.63;;;0.90;;
55539;SDS011;41384;51.418;7.286;2023-07-29T12:02:01;0.73;;;0.50;;
55539;SDS011;41384;51.418;7.286;2023-07-29T12:04:30;1.00;;;0.65;;
55539;SDS011;41384;51.418;7.286;2023-07-29T12:06:56;2.75;;;0.63;;
55539;SDS011;41384;51.418;7.286;2023-07-29T12:09:22;1.33;;;0.90;;
55539;SDS011;41384;51.418;7.286;2023-07-29T12:11:48;1.73;;;0.80;;
55539;SDS011;41384;51.418;7.286;2023-07-29T12:14:13;1.17;;;0.80;;
55539;SDS011;41384;51.418;7.286;2023-07-29T12:16:43;1.08;;;0.70;;
55539;SDS011;41384;51.418;7.286;2023-07-29T12:19:12;12.98;;;2.10;;
55539;SDS011;41384;51.418;7.286;2023-07-29T12:21:38;3.03;;;0.90;;
55539;SDS011;41384;51.418;7.286;2023-07-29T12:24:05;1.52;;;0.70;;
55539;SDS011;41384;51.418;7.286;2023-07-29T12:26:30;8.10;;;1.30;;
55539;SDS011;41384;51.418;7.286;2023-07-29T12:28:56;2.90;;;0.80;;
55539;SDS011;41384;51.418;7.286;2023-07-29T12:31:21;4.72;;;1.10;;
55539;SDS011;41384;51.418;7.286;2023-07-29T12:33:56;3.80;;;1.02;;
55539;SDS011;41384;51.418;7.286;2023-07-29T12:36:21;3.80;;;1.20;;
55539;SDS011;41384;51.418;7.286;2023-07-29T12:38:47;3.53;;;1.23;;
55539;SDS011;41384;51.418;7.286;2023-07-29T12:41:12;3.58;;;0.80;;
55539;SDS011;41384;51.418;7.286;2023-07-29T12:43:37;10.02;;;1.40;;
55539;SDS011;41384;51.418;7.286;2023-07-29T12:46:03;2.05;;;0.80;;
55539;SDS011;41384;51.418;7.286;2023-07-29T12:48:28;6.80;;;1.50;;
55539;SDS011;41384;51.418;7.286;2023-07-29T12:50:53;1.58;;;0.70;;
55539;SDS011;41384;51.418;7.286;2023-07-29T12:53:18;1.52;;;1.00;;
55539;SDS011;41384;51.418;7.286;2023-07-29T12:55:44;1.30;;;0.85;;
55539;SDS011;41384;51.418;7.286;2023-07-29T12:58:09;1.50;;;0.90;;
55539;SDS011;41384;51.418;7.286;2023-07-29T13:00:34;1.45;;;0.73;;
55539;SDS011;41384;51.418;7.286;2023-07-29T13:03:00;2.80;;;0.95;;
55539;SDS011;41384;51.418;7.286;2023-07-29T13:05:25;10.73;;;1.42;;
55539;SDS011;41384;51.418;7.286;2023-07-29T13:07:50;8.20;;;1.30;;
55539;SDS011;41384;51.418;7.286;2023-07-29T13:10:15;1.00;;;0.80;;
55539;SDS011;41384;51.418;7.286;2023-07-29T13:12:41;3.30;;;1.50;;
55539;SDS011;41384;51.418;7.286;2023-07-29T13:15:06;3.80;;;1.30;;
55539;SDS011;41384;51.418;7.286;2023-07-29T13:17:32;16.17;;;2.38;;
55539;SDS011;41384;51.418;7.286;2023-07-29T13:20:02;5.35;;;1.45;;
55539;SDS011;41384;51.418;7.286;2023-07-29T13:22:28;2.35;;;1.10;;
55539;SDS011;41384;51.418;7.286;2023-07-29T13:24:53;2.15;;;1.02;;
55539;SDS011;41384;51.418;7.286;2023-07-29T13:27:19;6.30;;;1.67;;
55539;SDS011;41384;51.418;7.286;2023-07-29T13:29:44;2.65;;;1.17;;
55539;SDS011;41384;51.418;7.286;2023-07-29T13:32:10;1.17;;;1.00;;
55539;SDS011;41384;51.418;7.286;2023-07-29T13:34:36;2.33;;;1.42;;
55539;SDS011;41384;51.418;7.286;2023-07-29T13:37:01;1.45;;;1.00;;
55539;SDS011;41384;51.418;7.286;2023-07-29T13:39:27;1.67;;;1.00;;
55539;SDS011;41384;51.418;7.286;2023-07-29T13:41:52;4.30;;;1.35;;
55539;SDS011;41384;51.418;7.286;2023-07-29T13:44:18;6.45;;;1.33;;
55539;SDS011;41384;51.418;7.286;2023-07-29T13:46:43;3.00;;;1.30;;
55539;SDS011;41384;51.418;7.286;2023-07-29T13:49:08;1.52;;;0.80;;
55539;SDS011;41384;51.418;7.286;2023-07-29T13:51:33;1.13;;;0.93;;
55539;SDS011;41384;51.418;7.286;2023-07-29T13:53:59;1.48;;;1.00;;
55539;SDS011;41384;51.418;7.286;2023-07-29T13:56:24;2.20;;;1.10;;
55539;SDS011;41384;51.418;7.286;2023-07-29T13:58:49;2.83;;;1.10;;
55539;SDS011;41384;51.418;7.286;2023-07-29T14:01:15;3.22;;;1.15;;
55539;SDS011;41384;51.418;7.286;2023-07-29T14:03:40;2.35;;;1.10;;
55539;SDS011;41384;51.418;7.286;2023-07-29T14:06:05;20.70;;;2.60;;
55539;SDS011;41384;51.418;7.286;2023-07-29T14:08:31;4.72;;;2.22;;
55539;SDS011;41384;51.418;7.286;2023-07-29T14:10:56;4.60;;;1.25;;
55539;SDS011;41384;51.418;7.286;2023-07-29T14:13:21;3.88;;;1.27;;
55539;SDS011;41384;51.418;7.286;2023-07-29T14:15:47;3.58;;;1.10;;
55539;SDS011;41384;51.418;7.286;2023-07-29T14:18:12;5.22;;;1.50;;
55539;SDS011;41384;51.418;7.286;2023-07-29T14:20:38;2.55;;;1.42;;
55539;SDS011;41384;51.418;7.286;2023-07-29T14:23:03;1.83;;;1.15;;
55539;SDS011;41384;51.418;7.286;2023-07-29T14:25:28;5.20;;;1.40;;
55539;SDS011;41384;51.418;7.286;2023-07-29T14:27:54;4.07;;;1.30;;
55539;SDS011;41384;51.418;7.286;2023-07-29T14:30:20;3.88;;;1.63;;
55539;SDS011;41384;51.418;7.286;2023-07-29T14:32:45;1.48;;;1.20;;
55539;SDS011;41384;51.418;7.286;2023-07-29T14:35:10;1.73;;;1.10;;
55539;SDS011;41384;51.418;7.286;2023-07-29T14:37:36;2.88;;;1.48;;
55539;SDS011;41384;51.418;7.286;2023-07-29T14:40:02;2.10;;;1.20;;
55539;SDS011;41384;51.418;7.286;2023-07-29T14:42:28;1.48;;;1.13;;
55539;SDS011;41384;51.418;7.286;2023-07-29T14:44:53;3.28;;;1.70;;
55539;SDS011;41384;51.418;7.286;2023-07-29T14:47:19;2.58;;;1.30;;
55539;SDS011;41384;51.418;7.286;2023-07-29T14:49:44;3.28;;;1.85;;
55539;SDS011;41384;51.418;7.286;2023-07-29T14:52:10;5.20;;;1.63;;
55539;SDS011;41384;51.418;7.286;2023-07-29T14:54:35;5.20;;;1.60;;
55539;SDS011;41384;51.418;7.286;2023-07-29T14:57:01;6.28;;;2.40;;
55539;SDS011;41384;51.418;7.286;2023-07-29T14:59:26;4.55;;;2.58;;
55539;SDS011;41384;51.418;7.286;2023-07-29T15:01:52;18.38;;;10.90;;
55539;SDS011;41384;51.418;7.286;2023-07-29T15:04:17;3.72;;;1.30;;
55539;SDS011;41384;51.418;7.286;2023-07-29T15:06:43;5.70;;;1.50;;